createdAt,value
2019-04-20T00:01:50.914Z,3.50
2019-04-20T00:03:55.587Z,3.10
2019-04-20T00:05:59.406Z,2.83
2019-04-20T00:08:08.992Z,3.00
2019-04-20T00:10:14.941Z,3.03
2019-04-20T00:12:22.098Z,3.07
2019-04-20T00:14:24.590Z,3.03
2019-04-20T00:16:25.223Z,3.23
2019-04-20T00:18:36.945Z,2.97
2019-04-20T00:20:37.184Z,2.80
2019-04-20T00:22:51.690Z,2.90
2019-04-20T00:25:00.456Z,2.90
2019-04-20T00:27:22.370Z,2.80
2019-04-20T00:29:25.179Z,3.33
2019-04-20T00:31:27.324Z,3.37
2019-04-20T00:33:36.359Z,2.90
2019-04-20T00:35:23.057Z,3.00
2019-04-20T00:37:27.753Z,2.77
2019-04-20T00:39:32.016Z,3.13
2019-04-20T00:41:43.820Z,3.10
2019-04-20T00:43:42.545Z,2.87
2019-04-20T00:45:58.511Z,2.90
2019-04-20T00:47:59.581Z,2.67
2019-04-20T00:50:13.353Z,3.00
2019-04-20T00:52:31.140Z,2.90
2019-04-20T00:54:09.537Z,2.77
2019-04-20T00:56:14.086Z,3.10
2019-04-20T00:58:27.027Z,2.97
2019-04-20T01:00:42.506Z,2.97
2019-04-20T01:02:42.268Z,3.40
2019-04-20T01:04:53.624Z,3.03
2019-04-20T01:07:06.289Z,3.37
2019-04-20T01:09:03.385Z,3.20
2019-04-20T01:11:08.212Z,3.30
2019-04-20T01:13:16.785Z,3.27
2019-04-20T01:15:28.025Z,3.73
2019-04-20T01:17:22.931Z,3.13
2019-04-20T01:19:26.604Z,3.37
2019-04-20T01:21:33.423Z,3.37
2019-04-20T01:23:44.056Z,3.20
2019-04-20T01:25:44.291Z,3.17
2019-04-20T01:28:04.512Z,3.13
2019-04-20T01:30:03.469Z,3.23
2019-04-20T01:32:14.169Z,3.33
2019-04-20T01:34:14.625Z,2.97
2019-04-20T01:36:25.429Z,3.27
2019-04-20T01:38:30.549Z,3.10
2019-04-20T01:40:19.467Z,3.20
2019-04-20T01:42:23.500Z,3.27
2019-04-20T01:44:33.224Z,3.40
2019-04-20T01:46:33.821Z,3.37
2019-04-20T01:48:40.268Z,3.90
2019-04-20T01:50:54.842Z,3.70
2019-04-20T01:52:58.093Z,3.40
2019-04-20T01:55:17.374Z,3.60
2019-04-20T01:57:29.913Z,3.50
2019-04-20T01:59:44.817Z,3.50
2019-04-20T02:01:55.249Z,3.60
2019-04-20T02:03:58.779Z,3.77
2019-04-20T02:06:12.667Z,3.57
2019-04-20T02:08:17.037Z,3.83
2019-04-20T02:10:20.022Z,3.60
2019-04-20T02:12:28.416Z,3.57
2019-04-20T02:14:35.851Z,3.53
2019-04-20T02:16:40.603Z,3.97
2019-04-20T02:18:52.596Z,3.40
2019-04-20T02:21:07.132Z,3.73
2019-04-20T02:23:06.270Z,4.10
2019-04-20T02:24:57.073Z,4.47
2019-04-20T02:27:01.995Z,4.50
2019-04-20T02:29:30.510Z,4.37
2019-04-20T02:33:59.262Z,4.10
2019-04-20T02:36:10.979Z,4.57
2019-04-20T02:38:45.043Z,4.27
2019-04-20T02:40:19.374Z,3.97
2019-04-20T02:42:28.240Z,4.33
2019-04-20T02:44:34.018Z,4.90
2019-04-20T02:48:41.846Z,4.33
2019-04-20T02:50:45.204Z,3.80
2019-04-20T02:52:57.788Z,3.93
2019-04-20T02:55:02.036Z,4.03
2019-04-20T02:59:43.189Z,4.20
2019-04-20T03:01:09.690Z,4.00
2019-04-20T03:03:03.221Z,4.23
2019-04-20T03:05:13.381Z,3.70
2019-04-20T03:07:15.622Z,4.00
2019-04-20T03:09:31.499Z,3.60
2019-04-20T03:11:44.214Z,4.00
2019-04-20T03:13:45.533Z,4.23
2019-04-20T03:15:46.306Z,3.87
2019-04-20T03:17:51.164Z,4.40
2019-04-20T03:19:51.315Z,3.87
2019-04-20T03:22:03.840Z,4.13
2019-04-20T03:24:15.892Z,4.37
2019-04-20T03:26:21.481Z,4.00
2019-04-20T03:28:40.118Z,4.33
2019-04-20T03:35:16.126Z,4.60
2019-04-20T03:37:20.016Z,4.03
2019-04-20T03:39:18.005Z,4.47
2019-04-20T03:41:13.998Z,4.13
2019-04-20T03:43:09.861Z,4.10
2019-04-20T03:45:17.833Z,4.17
2019-04-20T03:47:31.448Z,4.30
2019-04-20T03:49:48.329Z,4.30
2019-04-20T03:51:53.436Z,4.00
2019-04-20T03:54:08.580Z,4.07
2019-04-20T03:56:28.075Z,4.73
2019-04-20T03:58:45.361Z,4.53
2019-04-20T04:00:59.706Z,4.00
2019-04-20T04:03:23.573Z,4.10
2019-04-20T04:05:27.468Z,4.27
2019-04-20T04:07:26.837Z,4.03
2019-04-20T04:09:33.086Z,4.43
2019-04-20T04:11:43.529Z,4.10
2019-04-20T04:13:31.630Z,4.20
2019-04-20T04:15:42.770Z,4.40
2019-04-20T04:17:44.693Z,4.23
2019-04-20T04:19:55.803Z,4.47
2019-04-20T04:22:04.112Z,4.70
2019-04-20T04:24:10.722Z,4.00
2019-04-20T04:26:23.399Z,4.17
2019-04-20T04:28:24.872Z,4.20
2019-04-20T04:30:28.154Z,4.30
2019-04-20T04:33:02.997Z,4.67
2019-04-20T04:34:44.454Z,4.60
2019-04-20T04:36:53.690Z,4.70
2019-04-20T04:39:03.828Z,4.57
2019-04-20T04:41:11.374Z,4.43
2019-04-20T04:43:10.178Z,4.47
2019-04-20T04:45:00.801Z,4.77
2019-04-20T04:47:02.677Z,4.77
2019-04-20T04:49:09.642Z,4.80
2019-04-20T04:51:16.754Z,3.87
2019-04-20T04:53:28.552Z,4.50
2019-04-20T04:55:29.529Z,4.57
2019-04-20T04:57:26.123Z,4.47
2019-04-20T04:59:30.064Z,4.30
2019-04-20T05:01:36.981Z,4.43
2019-04-20T05:04:05.656Z,4.77
2019-04-20T05:06:01.902Z,4.83
2019-04-20T05:08:02.788Z,5.07
2019-04-20T05:09:57.060Z,5.10
2019-04-20T05:12:07.155Z,4.80
2019-04-20T05:14:11.000Z,4.67
2019-04-20T05:16:33.845Z,4.73
2019-04-20T05:18:41.509Z,5.20
2019-04-20T05:20:51.854Z,4.97
2019-04-20T05:23:06.064Z,4.77
2019-04-20T05:25:30.902Z,4.87
2019-04-20T05:27:51.185Z,4.97
2019-04-20T05:29:39.387Z,5.30
2019-04-20T05:31:49.358Z,5.30
2019-04-20T05:34:15.651Z,5.57
2019-04-20T05:36:12.726Z,5.40
2019-04-20T05:38:26.499Z,5.20
2019-04-20T05:40:29.319Z,4.90
2019-04-20T05:42:31.435Z,5.60
2019-04-20T05:44:42.747Z,4.97
2019-04-20T05:46:42.518Z,5.17
2019-04-20T05:48:54.587Z,4.70
2019-04-20T05:50:53.223Z,5.30
2019-04-20T05:53:03.234Z,5.50
2019-04-20T05:55:04.176Z,5.53
2019-04-20T05:57:14.946Z,5.60
2019-04-20T05:59:13.886Z,7.00
2019-04-20T06:01:25.269Z,6.50
2019-04-20T06:03:26.119Z,7.07
2019-04-20T06:05:36.413Z,6.63
2019-04-20T06:07:40.021Z,6.30
2019-04-20T06:09:52.417Z,5.87
2019-04-20T06:12:04.369Z,5.70
2019-04-20T06:13:47.057Z,6.20
2019-04-20T06:16:15.144Z,6.03
2019-04-20T06:18:16.564Z,5.83
2019-04-20T06:20:31.061Z,6.73
2019-04-20T06:22:41.654Z,6.00
2019-04-20T06:24:52.608Z,5.73
2019-04-20T06:28:51.822Z,5.90
2019-04-20T06:30:57.865Z,6.07
2019-04-20T06:34:05.492Z,6.40
2019-04-20T06:36:09.344Z,6.87
2019-04-20T06:38:00.653Z,6.57
2019-04-20T06:40:11.200Z,7.00
2019-04-20T06:42:10.810Z,6.50
2019-04-20T06:44:14.690Z,6.97
2019-04-20T06:46:24.043Z,7.53
2019-04-20T06:48:30.511Z,7.10
2019-04-20T06:50:30.339Z,7.50
2019-04-20T06:52:32.588Z,7.87
2019-04-20T06:54:43.147Z,6.97
2019-04-20T06:56:54.440Z,7.50
2019-04-20T06:59:06.933Z,9.37
2019-04-20T07:01:05.662Z,11.70
2019-04-20T07:03:09.011Z,8.20
2019-04-20T07:05:22.397Z,7.97
2019-04-20T07:09:39.907Z,7.73
2019-04-20T07:11:39.044Z,7.73
2019-04-20T07:13:28.901Z,7.47
2019-04-20T07:15:46.517Z,8.00
2019-04-20T07:20:05.977Z,7.70
2019-04-20T07:22:24.971Z,7.63
2019-04-20T07:24:24.947Z,8.67
2019-04-20T07:26:32.200Z,8.13
2019-04-20T07:28:43.685Z,8.20
2019-04-20T07:30:43.622Z,7.87
2019-04-20T07:32:49.851Z,8.53
2019-04-20T07:34:51.290Z,8.37
2019-04-20T07:37:19.331Z,8.37
2019-04-20T07:39:02.100Z,8.50
2019-04-20T07:41:14.362Z,8.77
2019-04-20T07:43:02.515Z,8.47
2019-04-20T07:45:24.179Z,7.97
2019-04-20T07:47:29.724Z,9.17
2019-04-20T07:49:27.485Z,8.30
2019-04-20T07:51:18.262Z,8.17
2019-04-20T07:53:32.985Z,8.20
2019-04-20T07:56:02.378Z,8.50
2019-04-20T07:57:41.939Z,7.70
2019-04-20T07:59:52.812Z,8.43
2019-04-20T08:02:15.965Z,8.07
2019-04-20T08:04:22.684Z,7.97
2019-04-20T08:06:23.456Z,7.97
2019-04-20T08:08:33.740Z,7.97
2019-04-20T08:10:39.410Z,8.20
2019-04-20T08:13:09.359Z,8.30
2019-04-20T08:15:05.067Z,8.60
2019-04-20T08:17:13.781Z,8.33
2019-04-20T08:19:07.957Z,9.13
2019-04-20T08:21:20.911Z,8.90
2019-04-20T08:23:23.100Z,8.50
2019-04-20T08:25:22.734Z,7.80
2019-04-20T08:27:16.220Z,8.37
2019-04-20T08:29:33.638Z,8.67
2019-04-20T08:31:41.675Z,8.63
2019-04-20T08:34:13.559Z,8.20
2019-04-20T08:36:10.711Z,8.03
2019-04-20T08:38:51.597Z,8.20
2019-04-20T08:40:21.557Z,8.03
2019-04-20T08:42:29.901Z,8.33
2019-04-20T08:46:45.618Z,8.30
2019-04-20T08:48:46.876Z,7.70
2019-04-20T08:50:50.653Z,7.27
2019-04-20T08:53:08.903Z,8.20
2019-04-20T08:55:02.393Z,8.27
2019-04-20T08:56:53.188Z,8.80
2019-04-20T08:58:52.826Z,7.80
2019-04-20T09:01:01.223Z,7.53
2019-04-20T09:03:12.137Z,8.43
2019-04-20T09:05:24.850Z,8.17
2019-04-20T09:07:20.243Z,7.37
2019-04-20T09:09:52.558Z,7.30
2019-04-20T09:11:49.639Z,7.10
2019-04-20T09:13:40.594Z,7.27
2019-04-20T09:15:38.339Z,7.60
2019-04-20T09:17:52.495Z,7.23
2019-04-20T09:19:59.953Z,7.17
2019-04-20T09:22:28.331Z,7.90
2019-04-20T09:24:47.440Z,7.77
2019-04-20T09:26:44.654Z,7.53
2019-04-20T09:28:39.607Z,6.97
2019-04-20T09:30:55.867Z,6.20
2019-04-20T09:33:09.723Z,7.67
2019-04-20T09:35:17.377Z,6.77
2019-04-20T09:37:27.808Z,6.23
2019-04-20T09:39:39.509Z,6.30
2019-04-20T09:41:59.890Z,5.83
2019-04-20T09:43:54.030Z,6.23
2019-04-20T09:46:02.126Z,5.83
2019-04-20T09:48:11.578Z,5.30
2019-04-20T09:50:25.015Z,5.70
2019-04-20T09:52:30.070Z,5.77
2019-04-20T09:54:35.846Z,6.13
2019-04-20T09:56:39.496Z,6.00
2019-04-20T09:58:52.421Z,6.03
2019-04-20T10:00:59.536Z,6.10
2019-04-20T10:02:52.654Z,5.90
2019-04-20T10:04:57.723Z,6.27
2019-04-20T10:07:07.905Z,5.07
2019-04-20T10:09:09.628Z,5.03
2019-04-20T10:11:13.824Z,4.70
2019-04-20T10:13:17.662Z,5.20
2019-04-20T10:15:25.926Z,5.60
2019-04-20T10:17:30.485Z,5.33
2019-04-20T10:19:35.735Z,5.60
2019-04-20T10:21:38.779Z,4.93
2019-04-20T10:23:44.892Z,4.77
2019-04-20T10:25:48.891Z,5.03
2019-04-20T10:27:53.553Z,5.20
2019-04-20T10:29:59.452Z,5.17
2019-04-20T10:32:07.923Z,4.70
2019-04-20T10:34:09.460Z,5.03
2019-04-20T10:36:25.634Z,4.77
2019-04-20T10:38:34.213Z,4.00
2019-04-20T10:40:46.133Z,4.77
2019-04-20T10:42:42.100Z,4.83
2019-04-20T10:44:48.028Z,5.00
2019-04-20T10:46:51.515Z,4.37
2019-04-20T10:48:58.332Z,4.60
2019-04-20T10:51:01.063Z,4.67
2019-04-20T10:53:05.750Z,4.30
2019-04-20T10:55:10.498Z,5.00
2019-04-20T10:57:15.550Z,4.53
2019-04-20T10:59:19.453Z,4.80
2019-04-20T11:01:23.166Z,5.53
2019-04-20T11:03:27.144Z,5.90
2019-04-20T11:05:32.806Z,5.03
2019-04-20T11:07:36.804Z,5.43
2019-04-20T11:09:40.777Z,6.00
2019-04-20T11:11:44.626Z,6.07
2019-04-20T11:13:48.317Z,5.13
2019-04-20T11:15:52.643Z,5.90
2019-04-20T11:17:57.533Z,5.20
2019-04-20T11:20:01.574Z,4.83
2019-04-20T11:22:06.228Z,4.83
2019-04-20T11:24:10.151Z,4.07
2019-04-20T11:26:14.141Z,4.00
2019-04-20T11:28:17.887Z,4.30
2019-04-20T11:30:22.462Z,4.10
2019-04-20T11:32:26.367Z,3.70
2019-04-20T11:34:34.000Z,3.30
2019-04-20T11:36:36.998Z,3.30
2019-04-20T11:38:41.265Z,4.30
2019-04-20T11:40:45.015Z,3.67
2019-04-20T11:42:49.959Z,3.37
2019-04-20T11:44:54.927Z,4.13
2019-04-20T11:46:58.780Z,3.90
2019-04-20T11:49:03.674Z,3.97
2019-04-20T11:51:07.615Z,4.70
2019-04-20T11:53:11.481Z,4.20
2019-04-20T11:55:16.116Z,3.93
2019-04-20T11:57:20.039Z,4.30
2019-04-20T11:59:23.761Z,4.43
2019-04-20T12:01:51.955Z,4.87
2019-04-20T12:04:01.937Z,5.33
2019-04-20T12:06:01.659Z,5.27
2019-04-20T12:08:07.052Z,4.43
2019-04-20T12:10:15.764Z,4.93
2019-04-20T12:12:27.281Z,5.13
2019-04-20T12:14:22.909Z,4.47
2019-04-20T12:16:27.814Z,5.20
2019-04-20T12:18:31.825Z,4.83
2019-04-20T12:20:36.665Z,4.37
2019-04-20T12:22:42.042Z,4.20
2019-04-20T12:24:45.919Z,4.43
2019-04-20T12:26:50.971Z,5.07
2019-04-20T12:28:58.021Z,4.97
2019-04-20T12:31:11.383Z,6.63
2019-04-20T12:33:07.579Z,6.60
2019-04-20T12:35:12.056Z,6.37
2019-04-20T12:37:15.814Z,5.60
2019-04-20T12:39:19.483Z,5.23
2019-04-20T12:41:34.484Z,6.13
2019-04-20T12:43:29.852Z,5.03
2019-04-20T12:45:33.634Z,5.17
2019-04-20T12:47:57.572Z,4.83
2019-04-20T12:50:01.725Z,5.53
2019-04-20T12:52:06.553Z,5.50
2019-04-20T12:54:10.866Z,5.83
2019-04-20T12:56:14.759Z,5.53
2019-04-20T12:58:18.710Z,5.60
2019-04-20T13:00:25.667Z,5.00
2019-04-20T13:02:29.470Z,4.30
2019-04-20T13:04:33.305Z,4.30
2019-04-20T13:06:39.089Z,4.77
2019-04-20T13:08:48.965Z,4.47
2019-04-20T13:10:50.715Z,4.30
2019-04-20T13:12:56.480Z,4.47
2019-04-20T13:15:26.570Z,3.93
2019-04-20T13:17:30.550Z,4.67
2019-04-20T13:19:35.372Z,3.93
2019-04-20T13:21:39.258Z,4.37
2019-04-20T13:23:44.795Z,4.70
2019-04-20T13:25:48.743Z,5.10
2019-04-20T13:27:52.809Z,5.53
2019-04-20T13:29:56.531Z,4.60
2019-04-20T13:32:00.255Z,4.70
2019-04-20T13:34:05.395Z,4.63
2019-04-20T13:36:10.301Z,4.40
2019-04-20T13:38:14.360Z,4.17
2019-04-20T13:40:19.715Z,4.07
2019-04-20T13:42:27.785Z,5.03
2019-04-20T13:44:28.862Z,4.10
2019-04-20T13:46:33.350Z,4.20
2019-04-20T13:48:37.192Z,4.67
2019-04-20T13:50:42.279Z,4.30
2019-04-20T13:52:46.866Z,3.93
2019-04-20T13:54:51.782Z,4.87
2019-04-20T13:56:57.516Z,3.90
2019-04-20T13:59:03.785Z,4.63
2019-04-20T14:01:12.594Z,5.10
2019-04-20T14:03:18.438Z,4.33
2019-04-20T14:05:33.242Z,4.30
2019-04-20T14:07:37.553Z,4.70
2019-04-20T14:09:41.620Z,15.97
2019-04-20T14:11:45.469Z,4.50
2019-04-20T14:13:55.357Z,4.43
2019-04-20T14:15:55.439Z,3.70
2019-04-20T14:17:59.422Z,4.57
2019-04-20T14:20:10.000Z,4.57
2019-04-20T14:22:10.296Z,3.60
2019-04-20T14:24:15.060Z,3.53
2019-04-20T14:26:18.938Z,4.33
2019-04-20T14:28:23.032Z,4.07
2019-04-20T14:30:26.967Z,3.43
2019-04-20T14:32:30.873Z,3.97
2019-04-20T14:34:35.227Z,3.83
2019-04-20T14:36:39.131Z,3.90
2019-04-20T14:38:45.351Z,4.17
2019-04-20T14:40:48.407Z,4.53
2019-04-20T14:42:55.025Z,4.27
2019-04-20T14:44:57.902Z,3.97
2019-04-20T14:47:01.611Z,4.40
2019-04-20T14:49:05.274Z,4.23
2019-04-20T14:51:09.773Z,3.80
2019-04-20T14:53:13.654Z,4.20
2019-04-20T14:55:18.961Z,4.23
2019-04-20T14:57:23.417Z,4.73
2019-04-20T14:59:29.577Z,4.40
2019-04-20T15:01:34.889Z,4.53
2019-04-20T15:03:40.890Z,4.40
2019-04-20T15:05:45.122Z,4.17
2019-04-20T15:07:48.937Z,4.07
2019-04-20T15:09:52.988Z,4.13
2019-04-20T15:11:56.966Z,4.10
2019-04-20T15:14:00.762Z,4.28
2019-04-20T15:16:04.715Z,4.03
2019-04-20T15:18:11.309Z,4.10
2019-04-20T15:20:17.217Z,4.13
2019-04-20T15:22:31.697Z,4.13
2019-04-20T15:24:35.651Z,3.93
2019-04-20T15:26:40.410Z,4.27
2019-04-20T15:28:44.200Z,4.30
2019-04-20T15:30:48.463Z,4.63
2019-04-20T15:32:52.599Z,4.10
2019-04-20T15:34:57.153Z,3.70
2019-04-20T15:37:02.336Z,4.23
2019-04-20T15:39:07.627Z,4.03
2019-04-20T15:41:13.327Z,3.93
2019-04-20T15:43:20.849Z,4.27
2019-04-20T15:45:23.289Z,4.00
2019-04-20T15:47:27.918Z,3.70
2019-04-20T15:49:31.929Z,4.00
2019-04-20T15:51:35.684Z,3.87
2019-04-20T15:53:39.789Z,4.10
2019-04-20T15:55:45.629Z,3.77
2019-04-20T15:57:50.357Z,3.80
2019-04-20T15:59:54.362Z,4.00
2019-04-20T16:02:15.698Z,4.07
2019-04-20T16:04:39.834Z,4.10
2019-04-20T16:06:43.271Z,4.30
2019-04-20T16:08:50.299Z,4.70
2019-04-20T16:10:55.200Z,4.30
2019-04-20T16:13:11.933Z,3.90
2019-04-20T16:15:07.504Z,4.93
2019-04-20T16:17:12.487Z,4.47
2019-04-20T16:19:28.781Z,3.92
2019-04-20T16:21:25.934Z,4.20
2019-04-20T16:23:28.287Z,4.00
2019-04-20T16:25:35.233Z,3.57
2019-04-20T16:27:39.264Z,4.10
2019-04-20T16:29:43.927Z,3.80
2019-04-20T16:31:49.915Z,3.87
2019-04-20T16:33:55.599Z,3.63
2019-04-20T16:35:58.568Z,3.80
2019-04-20T16:38:02.610Z,3.93
2019-04-20T16:40:08.508Z,3.80
2019-04-20T16:42:14.091Z,4.03
2019-04-20T16:44:17.976Z,4.20
2019-04-20T16:46:23.873Z,3.10
2019-04-20T16:48:28.202Z,3.53
2019-04-20T16:50:33.100Z,3.23
2019-04-20T16:52:36.934Z,3.70
2019-04-20T16:54:41.775Z,3.67
2019-04-20T16:56:46.619Z,3.20
2019-04-20T16:58:57.328Z,4.13
2019-04-20T17:00:55.958Z,3.60
2019-04-20T17:03:00.422Z,3.93
2019-04-20T17:05:05.196Z,3.90
2019-04-20T17:07:16.732Z,4.10
2019-04-20T17:09:21.894Z,4.07
2019-04-20T17:11:25.768Z,3.00
2019-04-20T17:13:37.998Z,3.30
2019-04-20T17:15:35.290Z,3.70
2019-04-20T17:17:39.932Z,3.23
2019-04-20T17:19:44.005Z,3.30
2019-04-20T17:21:48.683Z,3.60
2019-04-20T17:23:53.238Z,3.43
2019-04-20T17:25:57.996Z,3.03
2019-04-20T17:28:18.166Z,3.10
2019-04-20T17:30:26.701Z,2.87
2019-04-20T17:32:31.665Z,3.07
2019-04-20T17:34:46.980Z,3.40
2019-04-20T17:36:42.129Z,3.03
2019-04-20T17:38:52.599Z,2.90
2019-04-20T17:41:09.964Z,3.20
2019-04-20T17:43:07.578Z,3.53
2019-04-20T17:45:08.561Z,3.40
2019-04-20T17:47:25.861Z,25.57
2019-04-20T17:49:25.749Z,26.27
2019-04-20T17:51:40.000Z,7.47
2019-04-20T17:53:47.465Z,5.40
2019-04-20T17:55:51.774Z,4.33
2019-04-20T17:57:55.511Z,3.67
2019-04-20T18:00:12.186Z,3.60
2019-04-20T18:02:48.690Z,3.80
2019-04-20T18:05:11.007Z,4.13
2019-04-20T18:07:00.631Z,4.37
2019-04-20T18:09:06.852Z,3.90
2019-04-20T18:11:09.169Z,3.60
2019-04-20T18:13:12.056Z,3.87
2019-04-20T18:15:29.529Z,4.10
2019-04-20T18:17:32.644Z,3.73
2019-04-20T18:19:36.899Z,3.53
2019-04-20T18:21:45.586Z,3.50
2019-04-20T18:23:51.760Z,4.30
2019-04-20T18:26:18.539Z,3.33
2019-04-20T18:28:15.051Z,3.10
2019-04-20T18:30:26.295Z,3.87
2019-04-20T18:32:20.492Z,4.20
2019-04-20T18:34:27.800Z,3.53
2019-04-20T18:36:37.550Z,2.90
2019-04-20T18:38:45.004Z,3.30
2019-04-20T18:40:51.305Z,3.50
2019-04-20T18:42:59.650Z,3.73
2019-04-20T18:45:14.949Z,3.77
2019-04-20T18:47:18.605Z,3.43
2019-04-20T18:49:18.180Z,3.17
2019-04-20T18:51:09.956Z,3.70
2019-04-20T18:53:19.038Z,3.00
2019-04-20T18:55:29.075Z,3.10
2019-04-20T18:57:28.963Z,3.50
2019-04-20T18:59:39.624Z,3.90
2019-04-20T19:01:39.567Z,4.53
2019-04-20T19:03:44.089Z,4.90
2019-04-20T19:05:47.611Z,5.57
2019-04-20T19:07:59.324Z,4.73
2019-04-20T19:10:04.355Z,4.00
2019-04-20T19:12:06.010Z,3.37
2019-04-20T19:14:31.553Z,3.97
2019-04-20T19:16:35.626Z,3.77
2019-04-20T19:19:00.578Z,4.47
2019-04-20T19:20:57.349Z,4.27
2019-04-20T19:23:02.158Z,3.90
2019-04-20T19:25:09.987Z,4.13
2019-04-20T19:27:15.562Z,4.23
2019-04-20T19:29:27.772Z,5.80
2019-04-20T19:31:41.336Z,6.30
2019-04-20T19:33:47.035Z,5.10
2019-04-20T19:35:48.533Z,5.20
2019-04-20T19:37:51.261Z,5.40
2019-04-20T19:40:00.971Z,4.97
2019-04-20T19:41:59.737Z,6.00
2019-04-20T19:44:10.022Z,5.40
2019-04-20T19:46:44.400Z,5.60
2019-04-20T19:48:22.722Z,4.60
2019-04-20T19:52:43.366Z,5.57
2019-04-20T19:54:40.048Z,6.10
2019-04-20T19:56:47.075Z,15.23
2019-04-20T19:58:52.993Z,14.57
2019-04-20T20:00:46.250Z,29.30
2019-04-20T20:02:49.961Z,26.87
2019-04-20T20:05:00.443Z,26.00
2019-04-20T20:07:04.013Z,21.07
2019-04-20T20:09:11.003Z,9.83
2019-04-20T20:11:22.739Z,21.47
2019-04-20T20:13:18.266Z,12.37
2019-04-20T20:15:27.884Z,6.93
2019-04-20T20:17:52.894Z,6.87
2019-04-20T20:20:04.194Z,3.60
2019-04-20T20:21:56.393Z,5.40
2019-04-20T20:23:44.139Z,4.43
2019-04-20T20:25:49.819Z,5.10
2019-04-20T20:27:58.222Z,4.57
2019-04-20T20:30:09.238Z,4.57
2019-04-20T20:32:17.834Z,4.27
2019-04-20T20:34:17.114Z,4.90
2019-04-20T20:36:19.295Z,5.03
2019-04-20T20:38:28.013Z,4.47
2019-04-20T20:40:32.733Z,3.80
2019-04-20T20:42:48.559Z,4.57
2019-04-20T20:44:45.505Z,5.10
2019-04-20T20:46:55.019Z,5.20
2019-04-20T20:49:09.609Z,4.97
2019-04-20T20:51:10.365Z,4.97
2019-04-20T20:53:10.265Z,4.63
2019-04-20T20:55:19.683Z,5.40
2019-04-20T20:57:18.465Z,5.70
2019-04-20T20:59:30.735Z,5.43
2019-04-20T21:01:26.489Z,4.87
2019-04-20T21:03:35.987Z,4.80
2019-04-20T21:05:35.582Z,4.87
2019-04-20T21:07:40.526Z,4.63
2019-04-20T21:09:44.299Z,4.87
2019-04-20T21:11:51.116Z,5.13
2019-04-20T21:13:54.589Z,5.47
2019-04-20T21:16:03.485Z,6.03
2019-04-20T21:18:31.303Z,5.87
2019-04-20T21:20:20.240Z,4.97
2019-04-20T21:22:27.261Z,4.70
2019-04-20T21:24:23.684Z,5.40
2019-04-20T21:26:35.025Z,6.23
2019-04-20T21:28:36.070Z,5.47
2019-04-20T21:30:43.840Z,5.83
2019-04-20T21:32:48.442Z,6.17
2019-04-20T21:34:56.608Z,19.80
2019-04-20T21:37:07.322Z,25.83
2019-04-20T21:39:01.479Z,22.27
2019-04-20T21:41:11.257Z,20.33
2019-04-20T21:43:12.734Z,11.67
2019-04-20T21:45:23.132Z,12.10
2019-04-20T21:47:30.243Z,3.77
2019-04-20T21:49:43.682Z,5.13
2019-04-20T21:51:44.300Z,4.80
2019-04-20T21:53:39.478Z,5.20
2019-04-20T21:55:44.206Z,4.73
2019-04-20T21:57:51.493Z,4.77
2019-04-20T21:59:56.810Z,5.20
2019-04-20T22:02:07.802Z,4.80
2019-04-20T22:04:04.260Z,4.77
2019-04-20T22:06:08.920Z,4.47
2019-04-20T22:08:16.146Z,4.87
2019-04-20T22:10:22.817Z,5.20
2019-04-20T22:12:23.717Z,5.27
2019-04-20T22:14:30.039Z,5.43
2019-04-20T22:16:38.943Z,5.27
2019-04-20T22:18:48.196Z,5.20
2019-04-20T22:21:01.732Z,5.13
2019-04-20T22:23:00.845Z,5.40
2019-04-20T22:25:08.010Z,5.23
2019-04-20T22:27:06.274Z,5.13
2019-04-20T22:29:06.050Z,5.53
2019-04-20T22:31:09.794Z,5.90
2019-04-20T22:33:23.592Z,5.83
2019-04-20T22:35:24.402Z,5.37
2019-04-20T22:37:31.603Z,5.10
2019-04-20T22:39:42.161Z,4.63
2019-04-20T22:41:48.469Z,4.13
2019-04-20T22:43:50.415Z,4.13
2019-04-20T22:45:55.559Z,3.90
2019-04-20T22:48:06.731Z,3.93
2019-04-20T22:50:28.972Z,4.03
2019-04-20T22:52:30.454Z,4.03
2019-04-20T22:54:36.379Z,4.40
2019-04-20T22:56:38.308Z,4.00
2019-04-20T22:58:43.262Z,5.00
2019-04-20T23:00:43.136Z,6.07
2019-04-20T23:02:40.842Z,5.20
2019-04-20T23:04:44.713Z,5.07
2019-04-20T23:06:50.293Z,4.57
2019-04-20T23:08:59.517Z,5.10
2019-04-20T23:10:59.719Z,5.03
2019-04-20T23:13:05.311Z,3.93
2019-04-20T23:15:10.365Z,3.93
2019-04-20T23:17:18.542Z,3.50
2019-04-20T23:19:33.544Z,4.10
2019-04-20T23:21:25.880Z,3.63
2019-04-20T23:23:30.977Z,3.60
2019-04-20T23:25:36.455Z,3.80
2019-04-20T23:27:40.754Z,3.63
2019-04-20T23:29:46.947Z,3.80
2019-04-20T23:31:56.899Z,3.50
2019-04-20T23:33:56.398Z,3.53
2019-04-20T23:36:02.866Z,4.10
2019-04-20T23:38:11.094Z,4.03
2019-04-20T23:40:13.134Z,3.87
2019-04-20T23:42:18.043Z,3.60
2019-04-20T23:44:35.702Z,3.93
2019-04-20T23:46:41.284Z,4.00
2019-04-20T23:48:50.180Z,4.30
2019-04-20T23:51:08.312Z,3.80
2019-04-20T23:53:13.877Z,4.00
2019-04-20T23:55:09.813Z,3.90
2019-04-20T23:57:13.440Z,4.07
2019-04-20T23:59:19.073Z,4.33
